Time;durP1;ratioP1;P1;durP2;ratioP2;P2;SDS_P1;SDS_P2;PMS_P1;PMS_P2;Temp;Humidity;BMP_temperature;BMP_pressure;BME280_temperature;BME280_humidity;BME280_pressure;Samples;Min_cycle;Max_cycle;Signal;HPM_P1;HPM_P2
2023/01/05 00:03:45;;;;;;;15.88;14.18;;;10.50;84.00;;;;;;10825187;33;20051;-73
2023/01/05 00:09:47;;;;;;;16.62;13.77;;;10.60;83.80;;;;;;10825250;33;20386;-73
2023/01/05 00:22:30;;;;;;;15.93;12.73;;;10.50;84.20;;;;;;10844160;27;20036;-73
2023/01/05 00:28:32;;;;;;;13.55;10.90;;;10.40;84.00;;;;;;10861559;32;20023;-73
2023/01/05 00:34:35;;;;;;;16.92;13.23;;;10.20;84.50;;;;;;10860460;32;20050;-73
2023/01/05 00:40:37;;;;;;;15.52;12.27;;;10.20;84.60;;;;;;10861420;32;20047;-73
2023/01/05 00:46:39;;;;;;;16.98;13.32;;;10.10;84.70;;;;;;10861180;32;20401;-73
2023/01/05 00:52:42;;;;;;;18.40;16.00;;;10.30;85.00;;;;;;10861136;32;20318;-73
2023/01/05 00:58:44;;;;;;;16.20;12.63;;;10.50;84.70;;;;;;10866772;32;20053;-73
2023/01/05 01:04:47;;;;;;;13.93;10.60;;;10.50;84.50;;;;;;10867406;32;20345;-73
2023/01/05 01:10:49;;;;;;;14.48;11.73;;;10.20;84.80;;;;;;10864120;32;20050;-73
2023/01/05 01:16:51;;;;;;;11.73;8.95;;;10.10;85.20;;;;;;10854574;32;20034;-73
2023/01/05 01:22:55;;;;;;;11.52;9.35;;;10.00;85.50;;;;;;10853485;32;20428;-73
2023/01/05 01:28:57;;;;;;;13.73;10.20;;;10.10;85.50;;;;;;10866643;32;20051;-73
2023/01/05 01:34:59;;;;;;;15.00;12.20;;;10.10;85.80;;;;;;10866556;32;20024;-73
2023/01/05 01:41:02;;;;;;;14.40;11.38;;;10.40;85.70;;;;;;10866430;32;20326;-73
2023/01/05 01:47:04;;;;;;;11.95;9.40;;;10.60;85.20;;;;;;10866276;32;20055;-73
2023/01/05 01:53:30;;;;;;;20.50;15.20;;;10.40;85.40;;;;;;10866143;32;20307;-73
2023/01/05 01:59:32;;;;;;;14.70;10.80;;;10.30;85.60;;;;;;10851845;32;20405;-73
2023/01/05 02:05:36;;;;;;;13.40;10.50;;;10.50;85.40;;;;;;10852395;32;20019;-73
2023/01/05 02:11:58;;;;;;;14.02;10.45;;;10.40;85.50;;;;;;10865501;32;20050;-73
2023/01/05 02:18:15;;;;;;;15.10;10.77;;;10.20;85.70;;;;;;10865382;32;20042;-73
2023/01/05 02:24:38;;;;;;;39.13;20.90;;;10.30;86.00;;;;;;10865148;32;20055;-73
2023/01/05 02:30:50;;;;;;;15.18;9.95;;;10.40;85.80;;;;;;10865076;32;20011;-73
2023/01/05 02:37:03;;;;;;;12.98;9.07;;;10.10;85.90;;;;;;10851015;32;20035;-73
2023/01/05 02:43:07;;;;;;;13.18;8.98;;;10.10;86.20;;;;;;10851205;32;20386;-72
2023/01/05 02:49:11;;;;;;;12.95;9.43;;;10.10;86.20;;;;;;10864344;32;20028;-73
2023/01/05 02:55:18;;;;;;;15.40;9.93;;;9.90;86.30;;;;;;10864245;32;20046;-73
2023/01/05 03:01:28;;;;;;;14.18;10.10;;;9.80;86.40;;;;;;10850684;32;20058;-73
2023/01/05 03:07:35;;;;;;;13.60;9.07;;;9.80;86.30;;;;;;10863973;32;20050;-73
2023/01/05 03:13:42;;;;;;;17.83;13.68;;;9.70;86.50;;;;;;10863702;32;20459;-74
2023/01/05 03:19:46;;;;;;;12.82;8.27;;;9.90;86.40;;;;;;10849390;32;20020;-73
2023/01/05 03:38:46;;;;;;;12.57;8.63;;;10.20;86.40;;;;;;10863082;32;20424;-73
2023/01/05 03:44:49;;;;;;;22.35;14.13;;;10.10;86.50;;;;;;10862862;32;20353;-73
2023/01/05 03:50:53;;;;;;;11.23;8.25;;;10.20;86.70;;;;;;10862723;32;20028;-73
2023/01/05 03:56:55;;;;;;;15.13;9.85;;;10.50;86.60;;;;;;10849260;32;20054;-73
2023/01/05 04:02:57;;;;;;;14.07;9.02;;;10.40;86.50;;;;;;10862377;32;20023;-73
2023/01/05 04:09:00;;;;;;;14.40;9.55;;;10.30;86.80;;;;;;10862169;32;20028;-73
2023/01/05 04:15:03;;;;;;;33.33;13.75;;;10.40;86.70;;;;;;10862095;32;20024;-73
2023/01/05 04:21:07;;;;;;;14.52;10.45;;;10.20;86.70;;;;;;10835912;32;20028;-73
2023/01/05 04:27:09;;;;;;;16.35;10.45;;;10.00;86.90;;;;;;10861592;32;20333;-73
2023/01/05 04:33:13;;;;;;;14.15;8.98;;;9.90;86.90;;;;;;10861109;32;20096;-73
2023/01/05 04:39:15;;;;;;;12.18;8.73;;;9.90;86.90;;;;;;10848173;32;20016;-73
2023/01/05 04:45:18;;;;;;;15.55;10.90;;;10.00;87.20;;;;;;10861263;32;20050;-73
2023/01/05 04:51:20;;;;;;;20.15;11.63;;;10.20;87.00;;;;;;10861307;32;20341;-73
2023/01/05 04:57:22;;;;;;;12.27;7.93;;;10.10;86.80;;;;;;10861070;32;20405;-73
2023/01/05 05:03:29;;;;;;;9.00;6.87;;;10.00;86.90;;;;;;10860877;32;20381;-73
2023/01/05 05:09:32;;;;;;;11.55;7.03;;;10.00;87.10;;;;;;10860676;32;20042;-73
2023/01/05 05:15:34;;;;;;;15.40;10.77;;;9.90;87.00;;;;;;10846123;32;20023;-73
2023/01/05 05:21:37;;;;;;;11.95;8.85;;;9.90;87.00;;;;;;10860481;32;20015;-73
2023/01/05 05:27:39;;;;;;;8.73;5.93;;;9.80;86.90;;;;;;10856166;32;20027;-73
2023/01/05 05:33:42;;;;;;;9.82;4.85;;;9.60;87.10;;;;;;10859891;32;20020;-73
2023/01/05 05:39:45;;;;;;;8.15;4.93;;;9.60;87.30;;;;;;10860140;32;20039;-73
2023/01/05 05:45:47;;;;;;;8.23;5.35;;;9.60;87.10;;;;;;10865570;32;20027;-73
2023/01/05 05:51:49;;;;;;;13.07;8.65;;;9.60;87.30;;;;;;10852891;32;20007;-73
2023/01/05 05:57:51;;;;;;;9.95;6.00;;;10.00;87.50;;;;;;10866060;32;20406;-73
2023/01/05 06:03:53;;;;;;;12.77;7.00;;;10.20;86.90;;;;;;10865709;32;20046;-73
2023/01/05 06:10:02;;;;;;;12.15;7.28;;;10.10;87.00;;;;;;10864599;32;20019;-73
2023/01/05 06:16:07;;;;;;;17.50;12.07;;;10.20;87.30;;;;;;10865508;32;20385;-73
2023/01/05 06:22:09;;;;;;;10.40;6.97;;;10.50;86.90;;;;;;10865253;32;20020;-74
2023/01/05 06:28:11;;;;;;;12.13;7.45;;;10.50;86.50;;;;;;10865057;32;20020;-73
2023/01/05 06:34:13;;;;;;;9.35;6.28;;;10.30;86.60;;;;;;10865041;32;20012;-74
2023/01/05 06:40:15;;;;;;;10.77;6.90;;;10.10;87.00;;;;;;10864717;32;20299;-73
2023/01/05 06:46:17;;;;;;;11.65;7.47;;;10.20;87.10;;;;;;10864445;32;20016;-73
2023/01/05 06:52:20;;;;;;;11.32;7.70;;;10.10;87.00;;;;;;10864126;32;20020;-73
2023/01/05 06:58:22;;;;;;;9.80;6.68;;;10.00;87.20;;;;;;10864236;32;20016;-73
2023/01/05 07:04:24;;;;;;;9.93;7.05;;;9.80;87.20;;;;;;10863908;32;20023;-73
2023/01/05 07:10:26;;;;;;;14.10;10.90;;;10.10;87.70;;;;;;10863907;32;20012;-73
2023/01/05 07:16:28;;;;;;;12.35;7.97;;;10.20;87.20;;;;;;10863608;32;20488;-73
2023/01/05 07:22:30;;;;;;;13.45;9.63;;;10.60;87.10;;;;;;10863493;32;20020;-73
2023/01/05 07:28:37;;;;;;;16.85;11.40;;;10.70;87.00;;;;;;10859889;32;20311;-73
2023/01/05 07:34:39;;;;;;;20.12;13.40;;;10.80;86.70;;;;;;10863225;32;20016;-73
2023/01/05 07:40:41;;;;;;;13.02;9.35;;;10.80;86.80;;;;;;10860539;32;20024;-73
2023/01/05 07:46:43;;;;;;;19.75;13.95;;;11.00;86.80;;;;;;10862193;32;20046;-74
2023/01/05 07:52:45;;;;;;;18.48;13.55;;;11.20;86.70;;;;;;10845416;32;20019;-73
2023/01/05 07:58:48;;;;;;;17.70;13.13;;;11.70;86.60;;;;;;10845756;32;20051;-73
2023/01/05 08:04:50;;;;;;;14.63;9.98;;;11.90;86.00;;;;;;10848028;32;20062;-73
2023/01/05 08:10:52;;;;;;;15.80;12.75;;;12.10;86.10;;;;;;10861982;32;20039;-73
2023/01/05 08:16:54;;;;;;;15.45;9.85;;;12.20;85.50;;;;;;10848789;32;20030;-73
2023/01/05 08:22:56;;;;;;;14.30;10.13;;;12.20;85.40;;;;;;10402478;27;12391907;-73
2023/01/05 08:28:58;;;;;;;17.40;9.73;;;12.30;85.60;;;;;;10698169;33;20028;-73
2023/01/05 08:35:00;;;;;;;13.25;9.30;;;12.40;85.20;;;;;;10711157;33;20359;-73
2023/01/05 08:41:03;;;;;;;17.37;12.18;;;12.20;85.10;;;;;;10708623;33;20021;-73
2023/01/05 08:47:05;;;;;;;15.80;10.73;;;12.20;85.30;;;;;;10738187;33;20065;-73
2023/01/05 08:53:07;;;;;;;13.93;9.80;;;12.40;85.10;;;;;;10823865;33;20043;-74
2023/01/05 08:59:13;;;;;;;18.50;15.25;;;12.10;84.90;;;;;;10823900;33;20024;-73
2023/01/05 09:05:15;;;;;;;19.77;14.70;;;11.80;85.60;;;;;;10823590;33;20413;-74
2023/01/05 09:11:21;;;;;;;17.00;13.43;;;11.70;86.00;;;;;;10823545;33;20067;-74
2023/01/05 09:17:23;;;;;;;14.98;11.40;;;12.20;86.60;;;;;;10809624;33;20028;-73
2023/01/05 09:23:25;;;;;;;17.10;12.37;;;12.40;85.80;;;;;;10793958;33;20059;-74
2023/01/05 09:29:27;;;;;;;9.48;8.05;;;12.10;85.90;;;;;;10792938;33;20024;-74
2023/01/05 09:35:29;;;;;;;11.88;8.98;;;11.70;86.50;;;;;;10792732;33;20441;-74
2023/01/05 09:41:41;;;;;;;16.62;12.68;;;11.80;86.90;;;;;;10792570;33;20039;-73
2023/01/05 09:47:45;;;;;;;17.83;13.88;;;11.80;87.00;;;;;;10779076;33;20037;-74
2023/01/05 09:53:47;;;;;;;23.62;17.33;;;11.90;86.80;;;;;;10792143;33;20039;-74
2023/01/05 09:59:52;;;;;;;22.17;13.93;;;12.20;87.20;;;;;;10778986;33;20056;-74
2023/01/05 10:05:54;;;;;;;25.23;20.00;;;12.40;86.60;;;;;;10790435;33;20062;-73
2023/01/05 10:18:25;;;;;;;14.00;10.18;;;12.70;86.20;;;;;;10791624;33;20071;-74
2023/01/05 10:24:53;;;;;;;20.88;16.73;;;12.20;86.80;;;;;;10790041;33;20308;-74
2023/01/05 10:31:16;;;;;;;20.08;14.10;;;12.00;87.20;;;;;;10790386;33;20059;-73
2023/01/05 10:38:16;;;;;;;11.40;8.27;;;12.20;87.10;;;;;;10774252;33;20512;-73
2023/01/05 10:44:38;;;;;;;16.90;11.98;;;12.40;87.30;;;;;;10642964;33;20404;-74
2023/01/05 10:50:43;;;;;;;21.30;14.50;;;12.20;86.90;;;;;;10637669;33;20060;-74
2023/01/05 10:56:45;;;;;;;17.02;13.10;;;12.20;87.60;;;;;;10641650;33;20021;-74
2023/01/05 11:02:59;;;;;;;18.60;14.82;;;12.80;87.90;;;;;;10641369;33;20110;-74
2023/01/05 11:09:12;;;;;;;16.65;12.15;;;13.20;87.40;;;;;;10637496;33;20041;-74
2023/01/05 11:15:18;;;;;;;18.65;13.98;;;13.30;87.40;;;;;;10641197;33;20363;-74
2023/01/05 11:21:23;;;;;;;18.10;13.77;;;13.50;87.80;;;;;;10775778;33;20331;-74
2023/01/05 11:27:25;;;;;;;18.33;14.45;;;13.60;87.50;;;;;;10789351;33;20343;-74
2023/01/05 11:33:29;;;;;;;17.85;13.30;;;13.80;87.70;;;;;;10789088;33;20046;-74
2023/01/05 11:39:45;;;;;;;16.17;12.10;;;13.80;87.20;;;;;;10784347;33;20047;-74
2023/01/05 11:45:53;;;;;;;16.50;12.27;;;13.30;87.80;;;;;;10788985;33;20346;-74
2023/01/05 11:51:55;;;;;;;18.73;14.13;;;13.30;88.20;;;;;;10788865;33;20354;-74
2023/01/05 11:58:24;;;;;;;19.00;13.90;;;13.50;88.00;;;;;;10775683;32;20062;-74
2023/01/05 12:04:48;;;;;;;19.17;13.18;;;13.60;87.70;;;;;;10775471;33;20032;-74
2023/01/05 12:11:11;;;;;;;15.80;12.02;;;13.50;87.60;;;;;;10788207;33;20047;-74
2023/01/05 12:17:15;;;;;;;13.80;8.85;;;13.10;87.90;;;;;;10788216;33;20055;-73
2023/01/05 12:23:54;;;;;;;15.48;10.63;;;12.80;88.40;;;;;;10771724;33;20024;-74
2023/01/05 12:30:19;;;;;;;16.42;9.88;;;12.70;88.60;;;;;;10787893;33;20395;-74
2023/01/05 12:36:30;;;;;;;21.05;14.07;;;12.70;89.00;;;;;;10774730;33;20013;-74
2023/01/05 12:42:46;;;;;;;14.43;10.50;;;13.00;88.70;;;;;;10787563;33;20012;-74
2023/01/05 12:49:16;;;;;;;12.05;8.07;;;13.00;88.10;;;;;;10787428;33;20031;-74
2023/01/05 12:55:37;;;;;;;15.43;10.85;;;12.70;88.50;;;;;;10776232;33;20029;-74
2023/01/05 13:02:27;;;;;;;22.35;16.15;;;12.60;88.70;;;;;;10793907;33;20043;-74
2023/01/05 13:08:46;;;;;;;19.13;12.03;;;12.80;88.70;;;;;;10792996;32;20340;-74
2023/01/05 13:15:15;;;;;;;16.35;11.57;;;13.10;88.60;;;;;;10795676;32;20055;-73
2023/01/05 13:21:20;;;;;;;19.43;13.47;;;13.20;87.90;;;;;;10794479;33;20457;-74
2023/01/05 13:27:22;;;;;;;24.35;17.10;;;12.90;88.40;;;;;;10795304;32;20116;-74
2023/01/05 13:33:54;;;;;;;20.65;12.65;;;12.80;88.40;;;;;;10794947;32;20039;-73
2023/01/05 13:40:17;;;;;;;17.42;10.23;;;12.60;88.40;;;;;;10794246;32;20047;-73
2023/01/05 13:47:19;;;;;;;21.73;13.77;;;12.80;88.80;;;;;;10792264;33;20064;-74
2023/01/05 13:53:25;;;;;;;19.42;12.25;;;12.80;88.70;;;;;;10796755;32;20246;-74
2023/01/05 13:59:32;;;;;;;22.13;14.65;;;13.20;88.50;;;;;;10829469;32;20422;-74
2023/01/05 14:06:02;;;;;;;18.80;13.80;;;13.40;88.10;;;;;;10828598;32;20051;-74
2023/01/05 14:12:06;;;;;;;20.17;13.27;;;13.50;88.30;;;;;;10829535;32;20024;-74
2023/01/05 14:18:33;;;;;;;20.98;12.65;;;13.50;88.10;;;;;;10811495;32;20083;-74
2023/01/05 14:24:38;;;;;;;21.30;14.98;;;13.60;88.20;;;;;;10792728;33;20020;-74
2023/01/05 14:30:40;;;;;;;22.30;16.75;;;13.30;88.50;;;;;;10790989;33;20016;-74
2023/01/05 14:36:57;;;;;;;16.25;12.18;;;13.60;88.90;;;;;;10790694;33;20050;-74
2023/01/05 14:43:03;;;;;;;16.33;9.98;;;13.70;88.40;;;;;;10777321;33;20060;-74
2023/01/05 14:49:53;;;;;;;15.98;10.60;;;13.70;88.30;;;;;;10777312;33;20028;-74
2023/01/05 14:55:56;;;;;;;24.10;13.60;;;13.80;88.20;;;;;;10828362;32;20020;-74
2023/01/05 15:02:03;;;;;;;20.15;13.88;;;13.70;88.40;;;;;;10811919;33;20021;-74
2023/01/05 15:08:32;;;;;;;18.42;12.70;;;13.70;88.40;;;;;;10843878;32;20036;-74
2023/01/05 15:14:56;;;;;;;14.83;10.23;;;13.70;88.50;;;;;;10853518;32;20020;-74
2023/01/05 15:21:25;;;;;;;16.33;11.35;;;13.50;88.60;;;;;;10865757;32;20132;-74
2023/01/05 15:27:46;;;;;;;;;;;13.60;88.80;;;;;;10828047;32;20307;-74
2023/01/05 15:34:12;;;;;;;19.60;13.55;;;13.50;88.70;;;;;;10825468;33;19938;-74
2023/01/05 15:40:14;;;;;;;18.40;12.93;;;13.50;88.40;;;;;;10824172;33;20024;-74
2023/01/05 15:46:19;;;;;;;14.68;10.30;;;13.30;88.60;;;;;;10825332;33;20024;-74
2023/01/05 15:52:33;;;;;;;22.27;15.40;;;13.30;88.40;;;;;;10825486;33;20016;-74
2023/01/05 15:58:44;;;;;;;20.33;13.27;;;13.20;88.30;;;;;;10807947;33;20028;-74
2023/01/05 16:04:46;;;;;;;19.92;11.52;;;13.20;88.60;;;;;;10825435;33;20035;-74
2023/01/05 16:10:58;;;;;;;19.42;11.90;;;13.10;88.60;;;;;;10811835;33;20050;-74
2023/01/05 16:17:03;;;;;;;16.20;9.63;;;13.00;88.80;;;;;;10812480;33;20016;-74
2023/01/05 16:23:15;;;;;;;12.37;8.45;;;13.10;88.70;;;;;;10849431;27;20053;-74
2023/01/05 16:29:37;;;;;;;16.55;11.38;;;13.10;88.50;;;;;;10862309;32;20057;-74
2023/01/05 16:36:05;;;;;;;17.12;11.35;;;13.10;88.60;;;;;;10861889;32;20015;-74
2023/01/05 16:42:43;;;;;;;20.00;13.57;;;13.10;88.50;;;;;;10861529;32;20046;-74
2023/01/05 16:48:50;;;;;;;16.48;10.60;;;13.00;88.50;;;;;;10848064;32;20054;-74
2023/01/05 16:55:21;;;;;;;15.25;10.75;;;13.00;88.60;;;;;;10847427;32;20427;-74
2023/01/05 17:01:34;;;;;;;13.52;9.57;;;13.00;88.50;;;;;;10847508;32;20019;-74
2023/01/05 17:07:39;;;;;;;18.62;13.25;;;13.10;88.30;;;;;;10846905;32;20062;-74
2023/01/05 17:13:48;;;;;;;12.30;8.32;;;13.30;88.30;;;;;;10860737;32;20050;-74
2023/01/05 17:19:52;;;;;;;19.85;13.95;;;13.30;87.70;;;;;;10845160;32;20070;-74
2023/01/05 17:26:03;;;;;;;14.32;9.98;;;13.30;87.90;;;;;;10860428;32;20429;-74
2023/01/05 17:32:05;;;;;;;15.10;9.93;;;13.30;87.50;;;;;;10860337;32;20031;-74
2023/01/05 17:38:11;;;;;;;21.45;13.25;;;12.90;87.60;;;;;;10849658;32;20345;-74
2023/01/05 17:44:14;;;;;;;18.85;12.32;;;12.70;87.90;;;;;;10866504;32;20055;-74
2023/01/05 17:50:19;;;;;;;21.58;16.10;;;12.80;87.60;;;;;;10852868;32;20027;-74
2023/01/05 17:56:21;;;;;;;20.85;13.90;;;12.70;87.40;;;;;;10851204;32;20043;-74
2023/01/05 18:02:23;;;;;;;26.27;18.90;;;12.50;87.30;;;;;;10865939;32;20023;-74
2023/01/05 18:08:26;;;;;;;21.20;15.70;;;12.50;87.30;;;;;;10852318;32;20040;-74
2023/01/05 18:14:28;;;;;;;19.65;16.37;;;12.70;87.00;;;;;;10865557;32;20028;-74
2023/01/05 18:20:30;;;;;;;22.30;16.20;;;12.70;86.60;;;;;;10865124;32;20059;-74
2023/01/05 18:26:32;;;;;;;18.30;13.13;;;12.70;86.20;;;;;;10865139;32;20024;-74
2023/01/05 18:32:35;;;;;;;17.12;12.15;;;12.70;86.00;;;;;;10839118;32;20040;-74
2023/01/05 18:38:37;;;;;;;17.17;12.13;;;12.70;86.00;;;;;;10851720;32;20020;-74
2023/01/05 18:44:39;;;;;;;16.83;11.40;;;12.60;85.80;;;;;;10864601;32;20042;-74
2023/01/05 18:50:43;;;;;;;15.13;10.73;;;12.60;85.70;;;;;;10850886;32;20050;-73
2023/01/05 18:56:45;;;;;;;18.58;13.00;;;12.40;85.50;;;;;;10847003;32;20061;-73
2023/01/05 19:02:47;;;;;;;15.43;11.95;;;12.40;85.70;;;;;;10850853;32;20031;-73
2023/01/05 19:08:51;;;;;;;19.27;14.20;;;12.40;85.70;;;;;;10860091;32;20028;-74
2023/01/05 19:14:53;;;;;;;25.85;17.65;;;12.20;85.40;;;;;;10859718;32;20024;-73
2023/01/05 19:20:57;;;;;;;21.55;14.82;;;12.10;85.50;;;;;;10863669;32;20406;-74
2023/01/05 19:26:59;;;;;;;21.67;18.25;;;12.20;85.70;;;;;;10863211;32;20329;-74
2023/01/05 19:33:01;;;;;;;27.10;20.23;;;12.30;86.20;;;;;;10863492;32;20439;-74
2023/01/05 19:39:12;;;;;;;20.88;13.40;;;12.30;85.90;;;;;;10863354;32;20381;-74
2023/01/05 19:45:14;;;;;;;17.37;12.65;;;12.40;85.60;;;;;;10862990;32;20024;-74
2023/01/05 19:51:25;;;;;;;22.37;17.70;;;12.10;85.20;;;;;;10862849;32;20341;-73
2023/01/05 19:57:27;;;;;;;21.30;15.73;;;12.10;85.10;;;;;;10862567;32;20062;-73
2023/01/05 20:03:30;;;;;;;18.17;12.90;;;12.00;84.70;;;;;;10857975;32;20019;-74
2023/01/05 20:09:32;;;;;;;23.87;15.98;;;12.00;84.60;;;;;;10858394;32;20054;-73
2023/01/05 20:15:35;;;;;;;20.90;13.57;;;11.80;84.70;;;;;;10862195;32;20035;-73
2023/01/05 20:21:37;;;;;;;15.55;12.05;;;11.80;84.80;;;;;;10862017;32;20065;-73
2023/01/05 20:27:39;;;;;;;15.90;11.95;;;11.80;84.50;;;;;;10861872;32;20023;-74
2023/01/05 20:33:41;;;;;;;19.90;13.98;;;11.80;84.20;;;;;;10861724;32;20019;-73
2023/01/05 20:39:44;;;;;;;24.75;18.92;;;11.30;84.60;;;;;;10858287;32;20104;-73
2023/01/05 20:45:46;;;;;;;37.88;26.77;;;11.30;85.10;;;;;;10861360;32;20329;-73
2023/01/05 20:51:48;;;;;;;24.58;19.05;;;11.50;85.50;;;;;;10861408;32;20024;-73
2023/01/05 20:57:50;;;;;;;27.42;19.12;;;11.70;85.70;;;;;;10847492;32;20090;-73
2023/01/05 21:03:53;;;;;;;26.48;19.23;;;11.30;85.60;;;;;;10831035;32;20035;-73
2023/01/05 21:09:55;;;;;;;25.85;20.73;;;11.20;85.60;;;;;;10860842;32;20069;-73
2023/01/05 21:16:02;;;;;;;20.27;15.05;;;11.40;85.70;;;;;;10851208;32;20566;-73
2023/01/05 21:22:04;;;;;;;20.62;15.20;;;11.50;85.00;;;;;;10867248;32;20413;-73
2023/01/05 21:28:06;;;;;;;22.23;16.17;;;11.20;84.80;;;;;;10866899;32;20020;-73
2023/01/05 21:34:10;;;;;;;33.55;21.50;;;11.00;85.80;;;;;;10853380;32;20035;-73
2023/01/05 21:40:12;;;;;;;22.90;15.23;;;10.90;86.20;;;;;;10866668;32;20038;-73
2023/01/05 21:46:14;;;;;;;25.67;18.20;;;11.20;86.00;;;;;;10866284;32;20024;-73
2023/01/05 21:58:37;;;;;;;18.17;14.38;;;10.80;86.20;;;;;;10866223;32;20027;-73
2023/01/05 22:04:40;;;;;;;20.30;15.68;;;10.90;86.40;;;;;;10866021;32;20046;-74
2023/01/05 22:10:42;;;;;;;34.85;23.92;;;10.70;86.30;;;;;;10863709;32;20054;-74
2023/01/05 22:16:44;;;;;;;23.90;17.48;;;10.70;86.80;;;;;;10865667;32;20038;-73
2023/01/05 22:22:47;;;;;;;26.05;18.35;;;11.00;86.30;;;;;;10851556;32;20369;-73
2023/01/05 22:28:50;;;;;;;22.45;17.75;;;11.00;86.50;;;;;;10865252;32;20066;-73
2023/01/05 22:34:52;;;;;;;25.20;18.30;;;11.20;86.20;;;;;;10839298;32;20054;-73
2023/01/05 22:40:56;;;;;;;22.67;15.45;;;11.10;86.20;;;;;;10839904;32;20031;-73
2023/01/05 22:46:59;;;;;;;17.92;14.02;;;10.90;86.60;;;;;;10864696;32;20015;-73
2023/01/05 22:53:01;;;;;;;23.60;16.27;;;10.90;86.90;;;;;;10864544;32;20429;-73
2023/01/05 22:59:03;;;;;;;24.55;16.05;;;10.80;86.70;;;;;;10864380;32;20023;-73
2023/01/05 23:05:06;;;;;;;25.42;17.85;;;11.00;86.80;;;;;;10838164;32;20436;-73
2023/01/05 23:11:10;;;;;;;45.30;31.77;;;10.90;86.50;;;;;;10864039;32;20046;-74
2023/01/05 23:17:12;;;;;;;20.30;14.85;;;11.00;87.00;;;;;;10863845;32;20322;-73
2023/01/05 23:23:14;;;;;;;29.90;20.17;;;11.30;86.70;;;;;;10863713;32;20016;-73
2023/01/05 23:29:47;;;;;;;18.92;14.20;;;11.20;86.90;;;;;;10863433;32;20054;-73
2023/01/05 23:35:51;;;;;;;40.85;29.92;;;11.40;86.30;;;;;;10863817;32;20019;-73
2023/01/05 23:41:54;;;;;;;23.00;17.80;;;11.10;86.70;;;;;;10845740;32;20390;-73
2023/01/05 23:47:58;;;;;;;26.83;18.60;;;11.20;87.10;;;;;;10862950;32;20024;-73
2023/01/05 23:54:00;;;;;;;42.25;27.73;;;11.40;87.00;;;;;;10862797;32;20048;-73
